Latest Coastal Weather Observations for Kingfish B

IDV60701

Issued at 6:15 am EDT Saturday 29 November 2014 (issued every 10 minutes, with the page automatically refreshed every 10 minutes)

About coastal observations | Map of coastal stations | Coastal observations for VIC | Marine services | Other Formats
Station Details ID: 400139 Name: KINGFISH B (PLATFORM) Lat: -38.60 Lon: 148.19 Height: 31.4 m
Data from the previous 72 hours. | See also: Recent months for locations in Victoria
Date/Time
EDT
Temp

°C
Wind Pressure Rain
since 9am
mm
Weather Cloud Vis
km
Sea
Height
m
Swell
Dir
 
Speed
knots
Gust
knots
hPa Trend Height
m
Period
s
Dir
29/05:50am 16.4 ESE 5 7 1016.8 - - - - - - - - -
29/05:30am 16.3 ESE 5 8 1016.8 - - - - - - - - -
29/04:20am 15.8 SE 7 9 1017.0 - - - - - - - - -
29/04:10am 15.8 SE 7 9 1017.0 - - - - - - - - -
29/04:00am 15.9 SE 6 8 1017.1 - - - - - - - - -
29/03:50am 15.9 ESE 5 7 1017.3 - - - - - - - - -
29/03:20am 15.9 SE 2 7 1017.7 - - - - - - - - -
29/03:10am 16.0 E 1 3 1017.8 - - - - - - - - -
29/03:00am 16.0 E 1 4 1018.0 - - - - - - - - -
29/02:40am 16.1 CALM 0 2 1018.2 - - - - - - - - -
29/02:30am 16.1 CALM 0 2 1018.3 - - - - - - - - -
29/02:20am 16.1 CALM 0 2 1018.4 - - - - - - - - -
29/02:10am 16.1 CALM 0 2 1018.6 - - - - - - - - -
29/02:00am 16.2 CALM 0 1 1018.7 - - - - - - - - -
29/01:10am 15.8 CALM 0 1 1019.4 - - - - - - - - -
29/12:50am 16.1 CALM 0 1 1019.7 - - - - - - - - -
29/12:30am 16.3 CALM 0 0 1020.0 - - - - - - - - -
 
Date/Time
EDT
Temp

°C
Wind Pressure Rain
since 9am
mm
Weather Cloud Vis
km
Sea
Height
m
Swell
Dir
 
Speed
knots
Gust
knots
hPa Trend Height
m
Period
s
Dir
28/11:50pm 16.3 CALM 0 0 1020.5 - - - - - - - - -
28/11:30pm 16.1 CALM 0 0 1020.6 - - - - - - - - -
28/11:10pm 16.2 CALM 0 1 1020.6 - - - - - - - - -
28/10:50pm 16.5 ENE 1 3 1020.6 - - - - - - - - -
28/10:40pm 16.6 ENE 2 4 1020.6 - - - - - - - - -
28/10:30pm 16.5 ENE 3 5 1020.6 - - - - - - - - -
28/09:40pm 16.7 E 4 6 1020.3 - - - - - - - - -
28/09:10pm 16.7 E 4 5 1020.1 - - - - - - - - -
28/08:50pm 16.7 E 3 5 1020.1 - - - - - - - - -
28/08:00pm 16.3 E 5 7 1020.0 - - - - - - - - -
28/07:40pm 16.4 E 5 7 1020.0 - - - - - - - - -
28/06:30pm 15.7 ESE 5 9 1020.1 - - - - - - - - -
28/06:20pm 15.6 ESE 5 9 1020.2 - - - - - - - - -
28/05:50pm 15.4 SE 5 8 1020.3 - - - - - - - - -
28/04:30pm 15.3 SE 4 6 1021.2 - - - - - - - - -
28/04:20pm 15.3 SE 5 7 1021.4 - - - - - - - - -
28/04:00pm 15.3 SE 4 7 1021.6 - - - - - - - - -
28/03:50pm 15.3 SE 4 6 1021.6 - - - - - - - - -
28/03:20pm 15.3 SE 5 7 1021.7 - - - - - - - - -
28/03:10pm 15.2 SE 5 7 1021.9 - - - - - - - - -
28/02:40pm 15.2 SSE 4 6 1022.3 - - - - - - - - -
28/01:30pm 15.5 CALM 0 1 1022.5 - - - - - - - - -
28/01:20pm 15.4 CALM 0 1 1022.6 - - - - - - - - -
28/01:10pm 15.2 SSE 1 2 1022.6 - - - - - - - - -
28/12:40pm 15.2 SSE 1 4 1022.7 - - - - - - - - -
28/12:00pm 15.1 S 2 3 1023.0 - - - - - - - - -
28/11:50am 14.9 SSE 4 5 1023.2 - - - - - - - - -
28/11:40am 15.1 SSE 3 4 1023.2 - - - - - - - - -
28/11:30am 15.2 S 3 4 1023.3 - - - - - - - - -
28/11:20am 15.3 SSE 2 4 1023.3 - - - - - - - - -
28/11:00am 16.1 CALM 0 0 1023.1 - - - - - - - - -
28/10:50am 16.2 CALM 0 0 1023.2 - - - - - - - - -
28/10:40am 16.3 CALM 0 0 1023.3 - - - - - - - - -
28/10:30am 16.7 CALM 0 1 1023.4 - - - - - - - - -
28/08:30am 16.2 S 2 3 1023.3 - - - - - - - - -
28/08:20am 15.8 S 2 3 1023.2 - - - - - - - - -
28/07:30am 14.4 SSE 2 3 1022.9 - - - - - - - - -
28/07:20am 13.9 SSE 2 3 1022.8 - - - - - - - - -
28/07:10am 13.3 SSE 2 3 1022.8 - - - - - - - - -
28/07:00am 13.2 SSE 1 2 1022.8 - - - - - - - - -
28/06:50am 13.1 S 1 2 1022.8 - - - - - - - - -
28/06:40am 13.0 CALM 0 2 1022.8 - - - - - - - - -
28/06:30am 12.9 CALM 0 0 1022.7 - - - - - - - - -
28/06:20am 13.0 CALM 0 0 1022.5 - - - - - - - - -
28/06:10am 13.0 CALM 0 0 1022.4 - - - - - - - - -
28/05:40am 13.4 CALM 0 0 1022.2 - - - - - - - - -
28/05:20am 13.6 CALM 0 0 1022.1 - - - - - - - - -
28/04:50am 13.9 CALM 0 0 1022.2 - - - - - - - - -
28/04:40am 13.6 CALM 0 0 1022.2 - - - - - - - - -
28/04:20am 13.6 CALM 0 0 1022.4 - - - - - - - - -
28/03:40am 14.3 CALM 0 0 1022.6 - - - - - - - - -
28/03:20am 13.9 CALM 0 0 1022.8 - - - - - - - - -
28/03:00am 14.0 CALM 0 0 1023.1 - - - - - - - - -
28/02:50am 13.9 CALM 0 0 1023.2 - - - - - - - - -
28/02:40am 14.2 CALM 0 0 1023.4 - - - - - - - - -
28/02:30am 14.3 CALM 0 0 1023.5 - - - - - - - - -
28/02:00am 14.0 CALM 0 0 1023.7 - - - - - - - - -
28/01:50am 13.6 CALM 0 0 1023.8 - - - - - - - - -
28/01:40am 13.2 CALM 0 0 1023.9 - - - - - - - - -
28/01:30am 13.0 CALM 0 0 1024.1 - - - - - - - - -
28/01:20am 12.5 CALM 0 0 1024.2 - - - - - - - - -
28/01:00am 12.0 CALM 0 0 1024.4 - - - - - - - - -
28/12:50am 12.1 CALM 0 0 1024.5 - - - - - - - - -
28/12:40am 12.1 CALM 0 1 1024.5 - - - - - - - - -
28/12:30am 12.1 CALM 0 0 1024.6 - - - - - - - - -
28/12:20am 12.3 CALM 0 0 1024.6 - - - - - - - - -
28/12:10am 12.6 CALM 0 0 1024.6 - - - - - - - - -
28/12:00am 12.7 CALM 0 2 1024.7 - - - - - - - - -
 
Date/Time
EDT
Temp

°C
Wind Pressure Rain
since 9am
mm
Weather Cloud Vis
km
Sea
Height
m
Swell
Dir
 
Speed
knots
Gust
knots
hPa Trend Height
m
Period
s
Dir
27/11:50pm 12.8 CALM 0 1 1024.8 - - - - - - - - -
27/11:40pm 12.9 SE 1 3 1024.8 - - - - - - - - -
27/11:30pm 12.9 SSE 1 4 1024.8 - - - - - - - - -
27/11:20pm 12.9 SSE 1 3 1024.8 - - - - - - - - -
27/11:10pm 13.0 CALM 0 2 1024.8 - - - - - - - - -
27/11:00pm 12.9 SSE 1 4 1024.8 - - - - - - - - -
27/10:50pm 13.0 SSE 1 3 1024.7 - - - - - - - - -
27/10:40pm 13.0 SSE 1 3 1024.7 - - - - - - - - -
27/10:30pm 13.0 S 1 2 1024.7 - - - - - - - - -
27/10:20pm 13.0 S 1 2 1024.7 - - - - - - - - -
27/08:30pm 13.5 S 4 5 1023.9 - - - - - - - - -
27/08:20pm 13.5 S 4 6 1023.9 - - - - - - - - -
27/08:10pm 13.6 S 4 6 1024.0 - - - - - - - - -
27/08:00pm 13.7 S 4 5 1024.0 - - - - - - - - -
27/07:50pm 13.9 SSW 4 5 1023.9 - - - - - - - - -
27/07:40pm 13.8 SSW 4 5 1023.8 - - - - - - - - -
27/07:30pm 13.6 S 5 6 1023.7 - - - - - - - - -
27/07:20pm 13.7 SSW 5 7 1023.7 - - - - - - - - -
27/07:10pm 13.7 SSW 6 7 1023.7 - - - - - - - - -
27/07:00pm 13.9 SSW 6 7 1023.6 - - - - - - - - -
27/06:50pm 13.9 SSW 7 9 1023.7 - - - - - - - - -
27/06:40pm 14.0 SSW 7 8 1023.7 - - - - - - - - -
27/06:30pm 14.0 SSW 7 9 1023.8 - - - - - - - - -
27/06:20pm 14.1 SSW 8 10 1023.9 - - - - - - - - -
27/06:10pm 14.1 SSW 8 10 1024.0 - - - - - - - - -
27/06:00pm 14.1 SSW 7 9 1024.0 - - - - - - - - -
27/05:50pm 14.0 SSW 9 10 1024.0 - - - - - - - - -
27/05:40pm 14.1 SSW 9 10 1023.9 - - - - - - - - -
27/05:30pm 14.3 SSW 9 10 1024.0 - - - - - - - - -
27/05:20pm 14.4 SSW 9 11 1024.1 - - - - - - - - -
27/05:10pm 14.4 SSW 9 10 1024.2 - - - - - - - - -
27/05:00pm 14.4 SSW 9 10 1024.2 - - - - - - - - -
27/04:50pm 14.7 SSW 9 11 1024.2 - - - - - - - - -
27/04:40pm 15.0 SSW 8 10 1024.0 - - - - - - - - -
27/04:30pm 14.9 SSW 9 11 1024.1 - - - - - - - - -
27/04:20pm 15.3 SW 9 10 1024.1 - - - - - - - - -
27/04:10pm 15.3 SW 9 10 1024.0 - - - - - - - - -
27/04:00pm 15.3 SW 9 11 1024.2 - - - - - - - - -
27/03:50pm 15.3 SW 9 11 1024.0 - - - - - - - - -
27/03:40pm 15.3 SW 10 12 1024.1 - - - - - - - - -
27/03:30pm 15.3 SW 10 11 1024.2 - - - - - - - - -
27/03:10pm 15.4 SW 11 12 1024.1 - - - - - - - - -
27/03:00pm 15.4 SW 11 14 1024.2 - - - - - - - - -
27/02:50pm 15.5 SW 12 15 1024.1 - - - - - - - - -
27/02:40pm 15.6 SW 12 15 1024.1 - - - - - - - - -
27/02:30pm 15.8 SW 13 15 1024.2 - - - - - - - - -
27/02:20pm 15.7 SW 13 15 1024.3 - - - - - - - - -
27/02:10pm 15.9 SW 13 17 1024.3 - - - - - - - - -
27/02:00pm 16.3 SW 13 15 1024.2 - - - - - - - - -
27/01:50pm 16.3 SW 12 15 1024.4 - - - - - - - - -
27/01:40pm 16.5 SW 13 16 1024.3 - - - - - - - - -
27/01:30pm 16.7 SW 14 16 1024.2 - - - - - - - - -
27/01:20pm 16.8 SW 14 17 1024.3 - - - - - - - - -
27/01:10pm 17.1 SW 14 17 1024.3 - - - - - - - - -
27/01:00pm 17.4 SW 14 16 1024.3 - - - - - - - - -
27/12:50pm 17.5 SW 14 16 1024.3 - - - - - - - - -
27/12:40pm 17.6 SW 13 15 1024.3 - - - - - - - - -
27/12:30pm 17.7 SW 13 15 1024.3 - - - - - - - - -
27/12:20pm 18.0 SW 13 16 1024.3 - - - - - - - - -
27/12:10pm 17.9 SW 13 16 1024.3 - - - - - - - - -
27/12:00pm 17.4 WSW 13 17 1024.3 - - - - - - - - -
27/11:50am 17.8 SW 13 15 1024.3 - - - - - - - - -
27/11:40am 17.9 WSW 14 16 1024.2 - - - - - - - - -
27/11:30am 17.9 WSW 13 16 1024.3 - - - - - - - - -
27/11:20am 18.0 WSW 13 15 1024.2 - - - - - - - - -
27/11:10am 18.2 SW 13 16 1024.1 - - - - - - - - -
27/11:00am 18.4 WSW 12 15 1024.2 - - - - - - - - -
27/10:50am 18.3 WSW 13 15 1024.2 - - - - - - - - -
27/10:40am 18.6 WSW 12 15 1024.2 - - - - - - - - -
27/10:30am 18.6 WSW 12 14 1024.3 - - - - - - - - -
27/10:20am 18.1 WSW 13 15 1024.2 - - - - - - - - -
27/10:10am 17.5 SW 13 15 1024.2 - - - - - - - - -
27/10:00am 17.3 WSW 13 15 1024.1 - - - - - - - - -
27/09:50am 17.2 SW 13 15 1024.1 - - - - - - - - -
27/09:30am 17.7 SW 12 17 1023.8 - - - - - - - - -
27/09:20am 17.8 SW 12 15 1023.8 - - - - - - - - -
27/09:10am 18.0 WSW 12 15 1023.6 - - - - - - - - -
27/09:00am 18.2 WSW 13 16 1023.6 - - - - - - - - -
27/08:50am 17.8 SW 13 15 1023.4 - - - - - - - - -
27/08:40am 18.1 WSW 13 15 1023.4 - - - - - - - - -
27/08:30am 18.7 WSW 13 16 1023.3 - - - - - - - - -
27/08:20am 18.7 WSW 13 16 1023.1 - - - - - - - - -
27/08:10am 17.7 SW 13 16 1023.0 - - - - - - - - -
27/08:00am 16.6 SW 12 15 1022.9 - - - - - - - - -
27/07:50am 16.3 SW 12 15 1022.9 - - - - - - - - -
27/07:40am 15.8 SW 12 14 1022.7 - - - - - - - - -
27/07:30am 15.1 SW 11 14 1022.6 - - - - - - - - -
27/07:20am 14.7 SW 12 15 1022.4 - - - - - - - - -
27/07:10am 14.7 SW 12 14 1022.5 - - - - - - - - -
27/07:00am 14.2 SW 11 14 1022.5 - - - - - - - - -
27/06:40am 14.2 SW 14 16 1022.2 - - - - - - - - -
27/06:30am 14.2 SW 12 15 1022.2 - - - - - - - - -
27/06:20am 14.1 SW 11 16 1022.1 - - - - - - - - -
27/06:10am 14.1 SW 13 16 1021.9 - - - - - - - - -
27/06:00am 14.0 SW 11 14 1021.9 - - - - - - - - -
27/05:50am 14.0 SW 11 14 1021.7 - - - - - - - - -
27/05:40am 14.3 SW 13 16 1021.7 - - - - - - - - -
27/05:30am 14.4 SW 12 15 1021.7 - - - - - - - - -
27/05:20am 14.4 SW 12 16 1021.6 - - - - - - - - -
27/05:10am 14.5 SW 12 15 1021.7 - - - - - - - - -
27/05:00am 14.5 WSW 12 16 1021.6 - - - - - - - - -
27/04:50am 14.4 SW 14 17 1021.5 - - - - - - - - -
27/04:40am 14.5 SW 11 16 1021.6 - - - - - - - - -
27/04:30am 14.4 SW 12 17 1021.6 - - - - - - - - -
27/04:20am 14.4 SW 13 18 1021.5 - - - - - - - - -
27/04:10am 14.6 SW 13 18 1021.5 - - - - - - - - -
27/04:00am 14.5 SW 13 15 1021.6 - - - - - - - - -
27/03:50am 14.5 SW 12 18 1021.7 - - - - - - - - -
27/03:40am 14.4 SW 11 15 1021.8 - - - - - - - - -
27/03:30am 14.5 SW 14 17 1021.6 - - - - - - - - -
27/03:20am 14.3 SW 15 19 1021.6 - - - - - - - - -
27/03:10am 14.3 SW 15 17 1021.7 - - - - - - - - -
27/03:00am 14.5 SW 13 19 1021.8 - - - - - - - - -
27/02:50am 14.4 SW 11 14 1021.9 - - - - - - - - -
27/02:40am 14.3 SW 13 17 1021.9 - - - - - - - - -
27/02:20am 14.4 SW 14 16 1022.2 - - - - - - - - -
27/02:10am 14.5 SW 14 16 1022.3 - - - - - - - - -
27/02:00am 14.7 SSW 14 17 1022.4 - - - - - - - - -
27/01:50am 14.9 SSW 16 19 1022.4 - - - - - - - - -
27/01:40am 14.8 SSW 14 18 1022.5 - - - - - - - - -
27/01:30am 14.7 SW 14 17 1022.5 - - - - - - - - -
27/01:20am 14.6 SW 14 17 1022.4 - - - - - - - - -
27/01:10am 14.6 SW 14 17 1022.4 - - - - - - - - -
27/01:00am 14.5 SW 16 19 1022.2 - - - - - - - - -
27/12:50am 14.5 SW 14 16 1022.3 - - - - - - - - -
27/12:40am 14.4 SW 15 18 1022.2 - - - - - - - - -
27/12:30am 14.6 SW 17 20 1022.1 - - - - - - - - -
27/12:20am 15.4 SW 16 19 1022.1 - - - - - - - - -
27/12:10am 15.2 SW 16 19 1022.2 - - - - - - - - -
27/12:00am 14.6 SW 16 19 1021.9 - - - - - - - - -
 
Date/Time
EDT
Temp

°C
Wind Pressure Rain
since 9am
mm
Weather Cloud Vis
km
Sea
Height
m
Swell
Dir
 
Speed
knots
Gust
knots
hPa Trend Height
m
Period
s
Dir
26/11:50pm 14.7 SW 17 21 1022.0 - - - - - - - - -
26/11:40pm 14.8 SW 17 20 1022.1 - - - - - - - - -
26/11:30pm 14.7 SSW 17 21 1022.4 - - - - - - - - -
26/11:20pm 14.6 SW 18 22 1021.9 - - - - - - - - -
26/11:10pm 14.6 SW 19 22 1021.8 - - - - - - - - -
26/11:00pm 14.5 SW 19 22 1021.7 - - - - - - - - -
26/10:50pm 14.4 SW 18 22 1021.8 - - - - - - - - -
26/10:40pm 14.4 SW 19 23 1021.5 - - - - - - - - -
26/10:30pm 14.4 SW 20 24 1021.2 - - - - - - - - -
26/10:10pm 14.4 SW 20 23 1021.1 - - - - - - - - -
26/10:00pm 14.4 SW 20 23 1021.0 - - - - - - - - -
26/09:50pm 14.4 SW 20 24 1020.7 - - - - - - - - -
26/09:40pm 14.4 SW 24 27 1020.1 - - - - - - - - -
26/09:30pm 14.5 SW 23 28 1020.2 - - - - - - - - -
26/09:20pm 14.5 SW 24 28 1020.1 - - - - - - - - -
26/09:10pm 14.6 SW 22 27 1020.1 - - - - - - - - -
26/09:00pm 14.8 SW 21 26 1020.1 - - - - - - - - -
26/08:50pm 14.7 SW 24 27 1019.8 - - - - - - - - -
26/08:40pm 14.9 SW 23 27 1019.8 - - - - - - - - -
26/08:30pm 15.0 SW 25 29 1019.7 - - - - - - - - -
26/08:20pm 15.1 SW 23 27 1020.0 - - - - - - - - -
26/08:10pm 15.2 SW 21 25 1019.9 - - - - - - - - -
26/08:00pm 15.3 SW 22 25 1019.9 - - - - - - - - -
26/07:50pm 15.4 SW 22 26 1019.6 - - - - - - - - -
26/07:40pm 15.4 SW 22 26 1019.3 - - - - - - - - -
26/07:30pm 15.4 SW 23 27 1019.2 - - - - - - - - -
26/07:20pm 15.4 SW 23 27 1019.1 - - - - - - - - -
26/07:10pm 15.5 SW 21 24 1019.2 - - - - - - - - -
26/07:00pm 15.5 SW 20 24 1019.3 - - - - - - - - -
26/06:50pm 15.6 SW 19 24 1019.4 - - - - - - - - -
26/06:40pm 15.6 SW 19 22 1019.3 - - - - - - - - -
26/06:30pm 15.7 SW 19 22 1019.3 - - - - - - - - -
26/06:20pm 15.8 SW 19 22 1019.2 - - - - - - - - -
26/06:10pm 15.8 SW 20 22 1019.2 - - - - - - - - -
26/06:00pm 15.9 SW 17 22 1019.3 - - - - - - - - -
26/05:50pm 16.1 SW 18 21 1019.2 - - - - - - - - -
26/05:40pm 16.2 SW 18 21 1019.2 - - - - - - - - -
26/05:30pm 16.3 SW 18 21 1019.2 - - - - - - - - -
26/05:20pm 16.2 SW 18 21 1019.4 - - - - - - - - -
26/05:10pm 16.0 SSW 18 21 1019.4 - - - - - - - - -
26/05:00pm 16.1 SW 15 19 1019.3 - - - - - - - - -
26/04:50pm 16.3 SW 15 18 1019.3 - - - - - - - - -
26/04:40pm 16.1 SW 16 19 1019.3 - - - - - - - - -
26/04:30pm 16.1 SW 17 21 1019.3 - - - - - - - - -
26/04:20pm 16.3 SSW 20 24 1019.7 - - - - - - - - -
26/04:00pm 16.7 SW 17 20 1019.0 - - - - - - - - -
26/03:50pm 16.8 SW 18 22 1019.1 - - - - - - - - -
26/03:40pm 17.2 SW 19 24 1019.3 - - - - - - - - -
26/03:30pm 17.6 SW 24 28 1018.9 - - - - - - - - -
26/03:20pm 18.2 SW 20 27 1018.7 - - - - - - - - -
26/03:10pm 18.0 SW 15 20 1018.8 - - - - - - - - -
26/03:00pm 17.9 WSW 17 22 1018.7 - - - - - - - - -
26/02:50pm 17.9 WSW 16 20 1018.8 - - - - - - - - -
26/02:40pm 17.9 WSW 16 20 1018.8 - - - - - - - - -
26/02:30pm 18.0 WSW 15 19 1018.8 - - - - - - - - -
26/02:20pm 18.1 WSW 16 20 1018.8 - - - - - - - - -
26/02:10pm 18.2 WSW 16 18 1018.8 - - - - - - - - -
26/02:00pm 18.2 WSW 15 19 1018.9 - - - - - - - - -
26/01:50pm 18.2 WSW 16 19 1018.9 - - - - - - - - -
26/01:40pm 18.1 WSW 16 20 1019.0 - - - - - - - - -
26/01:30pm 18.2 WSW 16 20 1018.9 - - - - - - - - -
26/01:20pm 18.3 WSW 16 20 1018.8 - - - - - - - - -
26/01:10pm 18.2 WSW 16 19 1018.9 - - - - - - - - -
26/01:00pm 18.1 WSW 15 19 1019.0 - - - - - - - - -
26/12:50pm 18.3 WSW 15 18 1019.0 - - - - - - - - -
26/12:40pm 18.2 WSW 13 18 1019.1 - - - - - - - - -
26/12:30pm 18.0 WSW 13 16 1019.2 - - - - - - - - -
26/12:20pm 18.1 W 14 17 1019.2 - - - - - - - - -
26/12:10pm 18.0 WSW 15 18 1019.2 - - - - - - - - -
26/11:50am 18.2 WSW 14 17 1019.2 - - - - - - - - -
26/11:40am 18.2 WSW 14 17 1019.2 - - - - - - - - -
26/11:30am 18.0 WSW 15 19 1019.1 - - - - - - - - -
26/11:20am 17.7 WSW 15 19 1019.1 - - - - - - - - -
26/11:10am 17.4 W 15 17 1019.1 - - - - - - - - -
26/11:00am 17.4 W 14 18 1019.1 - - - - - - - - -
26/10:50am 17.4 W 16 19 1019.1 - - - - - - - - -
26/10:40am 17.1 WSW 16 19 1019.1 - - - - - - - - -
26/10:30am 17.0 WSW 18 20 1019.1 - - - - - - - - -
26/10:20am 17.1 WSW 16 20 1019.1 - - - - - - - - -
26/10:00am 16.7 WSW 16 20 1019.0 - - - - - - - - -
26/09:50am 16.6 WSW 15 18 1019.0 - - - - - - - - -
26/09:40am 16.8 WSW 15 18 1018.9 - - - - - - - - -
26/09:30am 16.7 WSW 15 17 1018.8 - - - - - - - - -
26/09:20am 16.6 WSW 14 17 1018.8 - - - - - - - - -
26/09:10am 16.4 WSW 14 17 1018.8 - - - - - - - - -
26/09:00am 16.0 WSW 13 15 1018.7 - - - - - - - - -
26/08:50am 15.6 WSW 14 18 1018.7 - - - - - - - - -
26/08:40am 15.3 WSW 15 19 1018.5 - - - - - - - - -
26/08:30am 15.3 WSW 17 19 1018.5 - - - - - - - - -
26/08:20am 15.3 WSW 16 19 1018.4 - - - - - - - - -
26/08:10am 15.2 WSW 16 19 1018.4 - - - - - - - - -
26/08:00am 15.2 WSW 17 20 1018.2 - - - - - - - - -
26/07:50am 15.2 WSW 17 20 1018.1 - - - - - - - - -
26/07:30am 15.2 WSW 16 20 1018.2 - - - - - - - - -
26/07:20am 15.2 WSW 16 21 1018.2 - - - - - - - - -
26/07:10am 15.4 WSW 17 19 1018.1 - - - - - - - - -
26/07:00am 15.1 WSW 17 21 1017.9 - - - - - - - - -
26/06:50am 15.0 WSW 16 20 1017.9 - - - - - - - - -
26/06:40am 14.9 WSW 17 19 1017.9 - - - - - - - - -
26/06:30am 14.9 WSW 16 19 1017.8 - - - - - - - - -
26/06:20am 14.9 WSW 15 18 1017.8 - - - - - - - - -

Other Formats:

Comma delimited format used in spreadsheet applications
http://www.bom.gov.au/fwo/IDV60701/IDV60701.55039.axf

JavaScript Object Notation format (JSON) in row-major order
http://www.bom.gov.au/fwo/IDV60701/IDV60701.55039.json